sensor_id;sensor_type;location;lat;lon;timestamp;P1;durP1;ratioP1;P2;durP2;ratioP2
75340;SDS011;64931;47.562;18.920;2023-11-19T00:01:32;12.20;;;5.70;;
75340;SDS011;64931;47.562;18.920;2023-11-19T00:03:57;9.80;;;5.40;;
75340;SDS011;64931;47.562;18.920;2023-11-19T00:06:23;10.30;;;5.00;;
75340;SDS011;64931;47.562;18.920;2023-11-19T00:08:49;11.60;;;5.70;;
75340;SDS011;64931;47.562;18.920;2023-11-19T00:11:15;11.00;;;5.00;;
75340;SDS011;64931;47.562;18.920;2023-11-19T00:13:41;10.00;;;5.10;;
75340;SDS011;64931;47.562;18.920;2023-11-19T00:16:06;10.20;;;5.30;;
75340;SDS011;64931;47.562;18.920;2023-11-19T00:18:33;9.30;;;5.00;;
75340;SDS011;64931;47.562;18.920;2023-11-19T00:20:58;9.30;;;5.00;;
75340;SDS011;64931;47.562;18.920;2023-11-19T00:23:24;9.50;;;5.00;;
75340;SDS011;64931;47.562;18.920;2023-11-19T00:25:49;9.60;;;4.90;;
75340;SDS011;64931;47.562;18.920;2023-11-19T00:28:14;9.40;;;5.10;;
75340;SDS011;64931;47.562;18.920;2023-11-19T00:30:40;10.00;;;5.00;;
75340;SDS011;64931;47.562;18.920;2023-11-19T00:33:08;9.20;;;4.60;;
75340;SDS011;64931;47.562;18.920;2023-11-19T00:35:33;10.40;;;5.00;;
75340;SDS011;64931;47.562;18.920;2023-11-19T00:37:58;9.70;;;5.00;;
75340;SDS011;64931;47.562;18.920;2023-11-19T00:40:24;10.70;;;5.00;;
75340;SDS011;64931;47.562;18.920;2023-11-19T00:42:49;10.60;;;5.20;;
75340;SDS011;64931;47.562;18.920;2023-11-19T00:45:15;10.30;;;5.00;;
75340;SDS011;64931;47.562;18.920;2023-11-19T00:47:41;8.40;;;3.90;;
75340;SDS011;64931;47.562;18.920;2023-11-19T00:50:06;9.00;;;4.70;;
75340;SDS011;64931;47.562;18.920;2023-11-19T00:52:36;10.30;;;5.50;;
75340;SDS011;64931;47.562;18.920;2023-11-19T00:55:03;10.00;;;5.10;;
75340;SDS011;64931;47.562;18.920;2023-11-19T00:57:29;8.50;;;4.60;;
75340;SDS011;64931;47.562;18.920;2023-11-19T00:59:58;8.20;;;4.70;;
75340;SDS011;64931;47.562;18.920;2023-11-19T01:02:24;8.30;;;4.70;;
75340;SDS011;64931;47.562;18.920;2023-11-19T01:04:50;10.90;;;5.30;;
75340;SDS011;64931;47.562;18.920;2023-11-19T01:07:15;10.50;;;5.00;;
75340;SDS011;64931;47.562;18.920;2023-11-19T01:09:41;9.90;;;4.90;;
75340;SDS011;64931;47.562;18.920;2023-11-19T01:12:07;9.10;;;4.70;;
75340;SDS011;64931;47.562;18.920;2023-11-19T01:14:34;9.00;;;4.30;;
75340;SDS011;64931;47.562;18.920;2023-11-19T01:17:00;8.80;;;4.90;;
75340;SDS011;64931;47.562;18.920;2023-11-19T01:19:26;9.10;;;4.80;;
75340;SDS011;64931;47.562;18.920;2023-11-19T01:21:53;8.90;;;4.80;;
75340;SDS011;64931;47.562;18.920;2023-11-19T01:24:19;10.20;;;4.80;;
75340;SDS011;64931;47.562;18.920;2023-11-19T01:26:45;9.40;;;4.70;;
75340;SDS011;64931;47.562;18.920;2023-11-19T01:29:12;8.90;;;4.70;;
75340;SDS011;64931;47.562;18.920;2023-11-19T01:31:41;8.90;;;4.50;;
75340;SDS011;64931;47.562;18.920;2023-11-19T01:34:07;9.50;;;5.00;;
75340;SDS011;64931;47.562;18.920;2023-11-19T01:36:33;8.60;;;4.70;;
75340;SDS011;64931;47.562;18.920;2023-11-19T01:38:58;8.70;;;4.60;;
75340;SDS011;64931;47.562;18.920;2023-11-19T01:41:24;8.40;;;4.30;;
75340;SDS011;64931;47.562;18.920;2023-11-19T01:43:50;8.30;;;4.50;;
75340;SDS011;64931;47.562;18.920;2023-11-19T01:46:15;9.80;;;4.40;;
75340;SDS011;64931;47.562;18.920;2023-11-19T01:48:42;8.80;;;4.60;;
75340;SDS011;64931;47.562;18.920;2023-11-19T01:51:09;11.00;;;5.40;;
75340;SDS011;64931;47.562;18.920;2023-11-19T01:53:37;10.10;;;4.50;;
75340;SDS011;64931;47.562;18.920;2023-11-19T01:56:04;9.60;;;4.50;;
75340;SDS011;64931;47.562;18.920;2023-11-19T01:58:35;8.90;;;4.70;;
75340;SDS011;64931;47.562;18.920;2023-11-19T02:01:01;9.00;;;4.70;;
75340;SDS011;64931;47.562;18.920;2023-11-19T02:03:30;8.40;;;4.50;;
75340;SDS011;64931;47.562;18.920;2023-11-19T02:05:58;8.50;;;4.20;;
75340;SDS011;64931;47.562;18.920;2023-11-19T02:08:24;8.70;;;4.50;;
75340;SDS011;64931;47.562;18.920;2023-11-19T02:10:49;9.20;;;4.40;;
75340;SDS011;64931;47.562;18.920;2023-11-19T02:13:15;9.90;;;4.40;;
75340;SDS011;64931;47.562;18.920;2023-11-19T02:15:41;8.70;;;4.30;;
75340;SDS011;64931;47.562;18.920;2023-11-19T02:18:23;7.80;;;4.00;;
75340;SDS011;64931;47.562;18.920;2023-11-19T02:20:52;9.10;;;4.80;;
75340;SDS011;64931;47.562;18.920;2023-11-19T02:23:21;9.40;;;5.00;;
75340;SDS011;64931;47.562;18.920;2023-11-19T02:25:47;9.00;;;5.00;;
75340;SDS011;64931;47.562;18.920;2023-11-19T02:28:34;9.30;;;5.00;;
75340;SDS011;64931;47.562;18.920;2023-11-19T02:31:01;10.00;;;4.60;;
75340;SDS011;64931;47.562;18.920;2023-11-19T02:33:26;9.90;;;5.10;;
75340;SDS011;64931;47.562;18.920;2023-11-19T02:35:52;9.80;;;4.80;;
75340;SDS011;64931;47.562;18.920;2023-11-19T02:38:17;11.40;;;5.60;;
75340;SDS011;64931;47.562;18.920;2023-11-19T02:40:43;10.50;;;5.30;;
75340;SDS011;64931;47.562;18.920;2023-11-19T02:43:08;10.00;;;5.20;;
75340;SDS011;64931;47.562;18.920;2023-11-19T02:45:34;9.00;;;4.90;;
75340;SDS011;64931;47.562;18.920;2023-11-19T02:47:59;8.70;;;4.70;;
75340;SDS011;64931;47.562;18.920;2023-11-19T02:50:26;11.10;;;4.50;;
75340;SDS011;64931;47.562;18.920;2023-11-19T02:52:53;8.80;;;4.10;;
75340;SDS011;64931;47.562;18.920;2023-11-19T02:55:21;9.00;;;4.60;;
75340;SDS011;64931;47.562;18.920;2023-11-19T02:57:48;11.10;;;4.90;;
75340;SDS011;64931;47.562;18.920;2023-11-19T03:00:18;10.80;;;5.50;;
75340;SDS011;64931;47.562;18.920;2023-11-19T03:02:48;11.60;;;6.10;;
75340;SDS011;64931;47.562;18.920;2023-11-19T03:05:23;12.20;;;6.10;;
75340;SDS011;64931;47.562;18.920;2023-11-19T03:07:49;12.60;;;6.20;;
75340;SDS011;64931;47.562;18.920;2023-11-19T03:10:14;10.50;;;5.30;;
75340;SDS011;64931;47.562;18.920;2023-11-19T03:12:40;9.00;;;4.80;;
75340;SDS011;64931;47.562;18.920;2023-11-19T03:15:07;11.30;;;5.70;;
75340;SDS011;64931;47.562;18.920;2023-11-19T03:17:43;10.50;;;5.50;;
75340;SDS011;64931;47.562;18.920;2023-11-19T03:20:10;9.40;;;5.40;;
75340;SDS011;64931;47.562;18.920;2023-11-19T03:22:42;11.70;;;5.10;;
75340;SDS011;64931;47.562;18.920;2023-11-19T03:25:09;11.10;;;5.10;;
75340;SDS011;64931;47.562;18.920;2023-11-19T03:27:35;10.00;;;5.00;;
75340;SDS011;64931;47.562;18.920;2023-11-19T03:30:02;8.80;;;4.40;;
75340;SDS011;64931;47.562;18.920;2023-11-19T03:32:30;10.00;;;5.00;;
75340;SDS011;64931;47.562;18.920;2023-11-19T03:34:57;9.80;;;5.00;;
75340;SDS011;64931;47.562;18.920;2023-11-19T03:37:23;10.00;;;5.00;;
75340;SDS011;64931;47.562;18.920;2023-11-19T03:39:49;10.00;;;5.20;;
75340;SDS011;64931;47.562;18.920;2023-11-19T03:42:14;11.30;;;5.90;;
75340;SDS011;64931;47.562;18.920;2023-11-19T03:44:40;10.90;;;5.70;;
75340;SDS011;64931;47.562;18.920;2023-11-19T03:47:05;10.40;;;5.20;;
75340;SDS011;64931;47.562;18.920;2023-11-19T03:49:31;9.20;;;4.90;;
75340;SDS011;64931;47.562;18.920;2023-11-19T03:51:57;11.40;;;6.00;;
75340;SDS011;64931;47.562;18.920;2023-11-19T03:54:22;10.90;;;5.60;;
75340;SDS011;64931;47.562;18.920;2023-11-19T03:56:48;10.20;;;5.10;;
75340;SDS011;64931;47.562;18.920;2023-11-19T03:59:14;11.10;;;5.60;;
75340;SDS011;64931;47.562;18.920;2023-11-19T04:01:40;10.60;;;5.50;;
75340;SDS011;64931;47.562;18.920;2023-11-19T04:04:06;11.80;;;6.00;;
75340;SDS011;64931;47.562;18.920;2023-11-19T04:06:31;8.50;;;4.40;;
75340;SDS011;64931;47.562;18.920;2023-11-19T04:08:56;10.50;;;4.80;;
75340;SDS011;64931;47.562;18.920;2023-11-19T04:11:22;13.40;;;6.10;;
75340;SDS011;64931;47.562;18.920;2023-11-19T04:13:47;11.20;;;5.20;;
75340;SDS011;64931;47.562;18.920;2023-11-19T04:16:13;10.70;;;5.80;;
75340;SDS011;64931;47.562;18.920;2023-11-19T04:18:39;12.40;;;6.20;;
75340;SDS011;64931;47.562;18.920;2023-11-19T04:21:06;11.50;;;5.10;;
75340;SDS011;64931;47.562;18.920;2023-11-19T04:23:32;10.20;;;5.50;;
75340;SDS011;64931;47.562;18.920;2023-11-19T04:25:57;10.20;;;5.30;;
75340;SDS011;64931;47.562;18.920;2023-11-19T04:28:23;9.80;;;5.40;;
75340;SDS011;64931;47.562;18.920;2023-11-19T04:30:52;10.10;;;5.30;;
75340;SDS011;64931;47.562;18.920;2023-11-19T04:33:17;10.20;;;5.30;;
75340;SDS011;64931;47.562;18.920;2023-11-19T04:35:43;9.30;;;5.20;;
75340;SDS011;64931;47.562;18.920;2023-11-19T04:38:08;10.30;;;5.10;;
75340;SDS011;64931;47.562;18.920;2023-11-19T04:40:33;10.00;;;5.10;;
75340;SDS011;64931;47.562;18.920;2023-11-19T04:42:59;13.10;;;6.10;;
75340;SDS011;64931;47.562;18.920;2023-11-19T04:45:24;14.60;;;6.00;;
75340;SDS011;64931;47.562;18.920;2023-11-19T04:47:50;9.60;;;5.20;;
75340;SDS011;64931;47.562;18.920;2023-11-19T04:50:15;12.00;;;5.70;;
75340;SDS011;64931;47.562;18.920;2023-11-19T04:52:41;9.80;;;5.50;;
75340;SDS011;64931;47.562;18.920;2023-11-19T04:55:10;12.10;;;5.50;;
75340;SDS011;64931;47.562;18.920;2023-11-19T04:57:37;9.90;;;4.90;;
75340;SDS011;64931;47.562;18.920;2023-11-19T05:00:02;11.80;;;6.00;;
75340;SDS011;64931;47.562;18.920;2023-11-19T05:02:30;14.70;;;6.30;;
75340;SDS011;64931;47.562;18.920;2023-11-19T05:04:55;16.40;;;5.80;;
75340;SDS011;64931;47.562;18.920;2023-11-19T05:07:21;10.40;;;5.50;;
75340;SDS011;64931;47.562;18.920;2023-11-19T05:09:46;12.40;;;6.10;;
75340;SDS011;64931;47.562;18.920;2023-11-19T05:12:12;14.50;;;6.00;;
75340;SDS011;64931;47.562;18.920;2023-11-19T05:14:37;10.50;;;5.40;;
75340;SDS011;64931;47.562;18.920;2023-11-19T05:17:03;12.60;;;6.10;;
75340;SDS011;64931;47.562;18.920;2023-11-19T05:19:29;12.00;;;5.60;;
75340;SDS011;64931;47.562;18.920;2023-11-19T05:21:54;10.90;;;5.50;;
75340;SDS011;64931;47.562;18.920;2023-11-19T05:24:20;10.30;;;5.20;;
75340;SDS011;64931;47.562;18.920;2023-11-19T05:26:45;10.70;;;5.60;;
75340;SDS011;64931;47.562;18.920;2023-11-19T05:29:12;12.40;;;6.70;;
75340;SDS011;64931;47.562;18.920;2023-11-19T05:31:37;14.70;;;7.60;;
75340;SDS011;64931;47.562;18.920;2023-11-19T05:34:03;15.00;;;7.60;;
75340;SDS011;64931;47.562;18.920;2023-11-19T05:36:29;17.70;;;9.10;;
75340;SDS011;64931;47.562;18.920;2023-11-19T05:38:55;17.80;;;8.30;;
75340;SDS011;64931;47.562;18.920;2023-11-19T05:41:20;17.50;;;9.00;;
75340;SDS011;64931;47.562;18.920;2023-11-19T05:43:45;26.60;;;14.30;;
75340;SDS011;64931;47.562;18.920;2023-11-19T05:46:11;34.70;;;19.70;;
75340;SDS011;64931;47.562;18.920;2023-11-19T05:48:38;29.60;;;17.60;;
75340;SDS011;64931;47.562;18.920;2023-11-19T05:51:04;30.60;;;17.00;;
75340;SDS011;64931;47.562;18.920;2023-11-19T05:53:30;17.40;;;8.90;;
75340;SDS011;64931;47.562;18.920;2023-11-19T05:55:57;19.90;;;10.70;;
75340;SDS011;64931;47.562;18.920;2023-11-19T05:58:23;20.60;;;11.40;;
75340;SDS011;64931;47.562;18.920;2023-11-19T06:00:50;17.80;;;9.90;;
75340;SDS011;64931;47.562;18.920;2023-11-19T06:03:16;19.10;;;9.70;;
75340;SDS011;64931;47.562;18.920;2023-11-19T06:05:44;16.10;;;8.40;;
75340;SDS011;64931;47.562;18.920;2023-11-19T06:08:11;14.90;;;7.30;;
75340;SDS011;64931;47.562;18.920;2023-11-19T06:10:38;15.40;;;8.00;;
75340;SDS011;64931;47.562;18.920;2023-11-19T06:13:05;16.60;;;7.80;;
75340;SDS011;64931;47.562;18.920;2023-11-19T06:15:32;14.70;;;8.30;;
75340;SDS011;64931;47.562;18.920;2023-11-19T06:17:58;16.30;;;8.10;;
75340;SDS011;64931;47.562;18.920;2023-11-19T06:20:28;30.30;;;18.10;;
75340;SDS011;64931;47.562;18.920;2023-11-19T06:22:57;34.00;;;21.00;;
75340;SDS011;64931;47.562;18.920;2023-11-19T06:25:23;33.90;;;21.60;;
75340;SDS011;64931;47.562;18.920;2023-11-19T06:27:51;18.60;;;9.70;;
75340;SDS011;64931;47.562;18.920;2023-11-19T06:30:17;14.80;;;7.90;;
75340;SDS011;64931;47.562;18.920;2023-11-19T06:32:43;16.80;;;8.50;;
75340;SDS011;64931;47.562;18.920;2023-11-19T06:35:08;15.80;;;8.10;;
75340;SDS011;64931;47.562;18.920;2023-11-19T06:37:35;18.40;;;9.90;;
75340;SDS011;64931;47.562;18.920;2023-11-19T06:40:01;14.30;;;8.10;;
75340;SDS011;64931;47.562;18.920;2023-11-19T06:42:27;16.40;;;8.10;;
75340;SDS011;64931;47.562;18.920;2023-11-19T06:44:52;16.80;;;8.40;;
75340;SDS011;64931;47.562;18.920;2023-11-19T06:47:18;14.80;;;7.30;;
75340;SDS011;64931;47.562;18.920;2023-11-19T06:49:44;17.00;;;8.20;;
75340;SDS011;64931;47.562;18.920;2023-11-19T06:52:09;15.30;;;8.60;;
75340;SDS011;64931;47.562;18.920;2023-11-19T06:54:35;18.50;;;9.60;;
75340;SDS011;64931;47.562;18.920;2023-11-19T06:57:00;17.50;;;9.00;;
75340;SDS011;64931;47.562;18.920;2023-11-19T06:59:26;16.00;;;8.20;;
75340;SDS011;64931;47.562;18.920;2023-11-19T07:01:51;14.30;;;7.40;;
75340;SDS011;64931;47.562;18.920;2023-11-19T07:04:16;16.30;;;9.10;;
75340;SDS011;64931;47.562;18.920;2023-11-19T07:06:42;13.90;;;6.90;;
75340;SDS011;64931;47.562;18.920;2023-11-19T07:09:07;12.60;;;7.40;;
75340;SDS011;64931;47.562;18.920;2023-11-19T07:11:39;13.40;;;6.80;;
75340;SDS011;64931;47.562;18.920;2023-11-19T07:14:06;15.20;;;7.50;;
75340;SDS011;64931;47.562;18.920;2023-11-19T07:16:33;12.70;;;6.90;;
75340;SDS011;64931;47.562;18.920;2023-11-19T07:19:00;12.90;;;6.60;;
75340;SDS011;64931;47.562;18.920;2023-11-19T07:21:25;14.00;;;7.50;;
75340;SDS011;64931;47.562;18.920;2023-11-19T07:23:53;15.10;;;8.10;;
75340;SDS011;64931;47.562;18.920;2023-11-19T07:26:19;17.40;;;8.20;;
75340;SDS011;64931;47.562;18.920;2023-11-19T07:28:45;13.90;;;7.30;;
75340;SDS011;64931;47.562;18.920;2023-11-19T07:31:10;14.30;;;7.30;;
75340;SDS011;64931;47.562;18.920;2023-11-19T07:33:36;16.20;;;8.50;;
75340;SDS011;64931;47.562;18.920;2023-11-19T07:36:02;15.70;;;8.50;;
75340;SDS011;64931;47.562;18.920;2023-11-19T07:38:27;17.60;;;9.10;;
75340;SDS011;64931;47.562;18.920;2023-11-19T07:40:53;14.70;;;8.10;;
75340;SDS011;64931;47.562;18.920;2023-11-19T07:43:19;14.10;;;7.10;;
75340;SDS011;64931;47.562;18.920;2023-11-19T07:45:44;15.00;;;6.20;;
75340;SDS011;64931;47.562;18.920;2023-11-19T07:48:11;23.60;;;12.60;;
75340;SDS011;64931;47.562;18.920;2023-11-19T07:50:38;19.60;;;10.30;;
75340;SDS011;64931;47.562;18.920;2023-11-19T07:53:06;16.90;;;9.40;;
75340;SDS011;64931;47.562;18.920;2023-11-19T07:55:32;17.00;;;9.10;;
75340;SDS011;64931;47.562;18.920;2023-11-19T07:57:58;16.70;;;8.70;;
75340;SDS011;64931;47.562;18.920;2023-11-19T08:00:24;16.60;;;9.50;;
75340;SDS011;64931;47.562;18.920;2023-11-19T08:02:49;16.80;;;8.90;;
75340;SDS011;64931;47.562;18.920;2023-11-19T08:05:14;21.70;;;11.80;;
75340;SDS011;64931;47.562;18.920;2023-11-19T08:07:40;17.80;;;9.60;;
75340;SDS011;64931;47.562;18.920;2023-11-19T08:10:06;14.20;;;8.10;;
75340;SDS011;64931;47.562;18.920;2023-11-19T08:12:35;14.50;;;7.40;;
75340;SDS011;64931;47.562;18.920;2023-11-19T08:15:03;12.80;;;7.60;;
75340;SDS011;64931;47.562;18.920;2023-11-19T08:17:30;12.50;;;6.90;;
75340;SDS011;64931;47.562;18.920;2023-11-19T08:19:55;12.50;;;6.90;;
75340;SDS011;64931;47.562;18.920;2023-11-19T08:22:21;11.10;;;6.20;;
75340;SDS011;64931;47.562;18.920;2023-11-19T08:24:47;10.40;;;5.80;;
75340;SDS011;64931;47.562;18.920;2023-11-19T08:27:13;11.60;;;6.10;;
75340;SDS011;64931;47.562;18.920;2023-11-19T08:29:39;11.00;;;5.90;;
75340;SDS011;64931;47.562;18.920;2023-11-19T08:32:05;12.30;;;6.00;;
75340;SDS011;64931;47.562;18.920;2023-11-19T08:34:31;11.10;;;5.90;;
75340;SDS011;64931;47.562;18.920;2023-11-19T08:36:56;9.60;;;5.30;;
75340;SDS011;64931;47.562;18.920;2023-11-19T08:39:22;11.70;;;5.80;;
75340;SDS011;64931;47.562;18.920;2023-11-19T08:41:47;12.00;;;5.80;;
75340;SDS011;64931;47.562;18.920;2023-11-19T08:44:13;12.10;;;6.00;;
75340;SDS011;64931;47.562;18.920;2023-11-19T08:46:39;9.80;;;5.60;;
75340;SDS011;64931;47.562;18.920;2023-11-19T08:49:05;11.40;;;6.00;;
75340;SDS011;64931;47.562;18.920;2023-11-19T08:51:33;11.00;;;6.00;;
75340;SDS011;64931;47.562;18.920;2023-11-19T08:53:58;10.80;;;5.40;;
75340;SDS011;64931;47.562;18.920;2023-11-19T08:56:24;10.50;;;6.10;;
75340;SDS011;64931;47.562;18.920;2023-11-19T08:58:49;11.50;;;5.70;;
75340;SDS011;64931;47.562;18.920;2023-11-19T09:01:15;10.50;;;6.10;;
75340;SDS011;64931;47.562;18.920;2023-11-19T09:03:40;8.60;;;5.10;;
75340;SDS011;64931;47.562;18.920;2023-11-19T09:06:05;9.90;;;6.00;;
75340;SDS011;64931;47.562;18.920;2023-11-19T09:08:31;8.80;;;5.40;;
75340;SDS011;64931;47.562;18.920;2023-11-19T09:10:56;10.60;;;5.30;;
75340;SDS011;64931;47.562;18.920;2023-11-19T09:13:22;9.50;;;5.00;;
75340;SDS011;64931;47.562;18.920;2023-11-19T09:15:48;9.20;;;5.20;;
75340;SDS011;64931;47.562;18.920;2023-11-19T09:18:13;10.00;;;5.50;;
75340;SDS011;64931;47.562;18.920;2023-11-19T09:20:38;8.70;;;5.00;;
75340;SDS011;64931;47.562;18.920;2023-11-19T09:23:05;7.60;;;4.50;;
75340;SDS011;64931;47.562;18.920;2023-11-19T09:25:31;11.40;;;6.50;;
75340;SDS011;64931;47.562;18.920;2023-11-19T09:27:56;8.40;;;4.40;;
75340;SDS011;64931;47.562;18.920;2023-11-19T09:30:22;7.70;;;3.90;;
75340;SDS011;64931;47.562;18.920;2023-11-19T09:32:47;7.70;;;4.60;;
75340;SDS011;64931;47.562;18.920;2023-11-19T09:35:13;7.80;;;4.80;;
75340;SDS011;64931;47.562;18.920;2023-11-19T09:37:39;8.70;;;4.50;;
75340;SDS011;64931;47.562;18.920;2023-11-19T09:40:05;8.20;;;4.40;;
75340;SDS011;64931;47.562;18.920;2023-11-19T09:42:39;8.20;;;4.40;;
75340;SDS011;64931;47.562;18.920;2023-11-19T09:45:12;8.30;;;4.40;;
75340;SDS011;64931;47.562;18.920;2023-11-19T09:54:34;7.30;;;4.30;;
75340;SDS011;64931;47.562;18.920;2023-11-19T09:57:00;7.80;;;4.10;;
75340;SDS011;64931;47.562;18.920;2023-11-19T09:59:30;7.40;;;4.30;;
75340;SDS011;64931;47.562;18.920;2023-11-19T10:01:56;8.20;;;4.50;;
75340;SDS011;64931;47.562;18.920;2023-11-19T10:04:21;7.80;;;4.20;;
75340;SDS011;64931;47.562;18.920;2023-11-19T10:06:47;7.90;;;4.70;;
75340;SDS011;64931;47.562;18.920;2023-11-19T10:09:14;8.40;;;5.10;;
75340;SDS011;64931;47.562;18.920;2023-11-19T10:11:40;7.90;;;4.10;;
75340;SDS011;64931;47.562;18.920;2023-11-19T10:14:05;7.20;;;4.30;;
75340;SDS011;64931;47.562;18.920;2023-11-19T10:16:31;7.40;;;4.10;;
75340;SDS011;64931;47.562;18.920;2023-11-19T10:18:59;8.20;;;5.00;;
75340;SDS011;64931;47.562;18.920;2023-11-19T10:21:25;7.70;;;4.40;;
75340;SDS011;64931;47.562;18.920;2023-11-19T10:23:54;7.30;;;5.20;;
75340;SDS011;64931;47.562;18.920;2023-11-19T10:26:22;9.70;;;4.80;;
75340;SDS011;64931;47.562;18.920;2023-11-19T10:28:48;7.70;;;4.30;;
75340;SDS011;64931;47.562;18.920;2023-11-19T10:31:14;7.60;;;3.80;;
75340;SDS011;64931;47.562;18.920;2023-11-19T10:33:40;7.40;;;4.30;;
75340;SDS011;64931;47.562;18.920;2023-11-19T10:36:06;7.60;;;4.30;;
75340;SDS011;64931;47.562;18.920;2023-11-19T10:38:32;7.80;;;4.00;;
75340;SDS011;64931;47.562;18.920;2023-11-19T10:40:57;6.50;;;3.70;;
75340;SDS011;64931;47.562;18.920;2023-11-19T10:43:24;10.30;;;4.50;;
75340;SDS011;64931;47.562;18.920;2023-11-19T10:45:50;7.60;;;3.90;;
75340;SDS011;64931;47.562;18.920;2023-11-19T10:48:15;7.00;;;4.10;;
75340;SDS011;64931;47.562;18.920;2023-11-19T10:50:42;7.90;;;4.70;;
75340;SDS011;64931;47.562;18.920;2023-11-19T10:53:09;7.80;;;4.40;;
75340;SDS011;64931;47.562;18.920;2023-11-19T10:55:38;8.80;;;4.60;;
75340;SDS011;64931;47.562;18.920;2023-11-19T10:58:05;11.60;;;7.70;;
75340;SDS011;64931;47.562;18.920;2023-11-19T11:05:46;11.20;;;6.00;;
75340;SDS011;64931;47.562;18.920;2023-11-19T11:08:13;9.50;;;5.20;;
75340;SDS011;64931;47.562;18.920;2023-11-19T11:10:42;10.90;;;6.70;;
75340;SDS011;64931;47.562;18.920;2023-11-19T11:13:09;9.20;;;5.50;;
75340;SDS011;64931;47.562;18.920;2023-11-19T11:15:35;11.20;;;6.40;;
75340;SDS011;64931;47.562;18.920;2023-11-19T11:18:01;9.70;;;5.50;;
75340;SDS011;64931;47.562;18.920;2023-11-19T11:20:31;12.50;;;7.50;;
75340;SDS011;64931;47.562;18.920;2023-11-19T11:23:06;10.50;;;6.60;;
75340;SDS011;64931;47.562;18.920;2023-11-19T11:25:40;11.30;;;6.40;;
75340;SDS011;64931;47.562;18.920;2023-11-19T11:28:21;10.60;;;6.00;;
75340;SDS011;64931;47.562;18.920;2023-11-19T11:31:01;9.50;;;6.00;;
75340;SDS011;64931;47.562;18.920;2023-11-19T11:36:33;10.80;;;6.20;;
75340;SDS011;64931;47.562;18.920;2023-11-19T11:39:06;10.80;;;6.60;;
75340;SDS011;64931;47.562;18.920;2023-11-19T11:41:33;11.00;;;6.30;;
75340;SDS011;64931;47.562;18.920;2023-11-19T11:44:01;11.70;;;7.20;;
75340;SDS011;64931;47.562;18.920;2023-11-19T11:48:59;11.00;;;7.10;;
75340;SDS011;64931;47.562;18.920;2023-11-19T11:54:30;12.90;;;8.10;;
75340;SDS011;64931;47.562;18.920;2023-11-19T11:59:31;14.80;;;8.20;;
75340;SDS011;64931;47.562;18.920;2023-11-19T12:02:18;14.00;;;8.30;;
75340;SDS011;64931;47.562;18.920;2023-11-19T12:04:49;17.80;;;9.70;;
75340;SDS011;64931;47.562;18.920;2023-11-19T12:07:16;16.10;;;8.80;;
75340;SDS011;64931;47.562;18.920;2023-11-19T12:09:46;15.80;;;8.60;;
75340;SDS011;64931;47.562;18.920;2023-11-19T12:17:46;19.30;;;9.80;;
75340;SDS011;64931;47.562;18.920;2023-11-19T12:20:19;15.10;;;10.30;;
75340;SDS011;64931;47.562;18.920;2023-11-19T12:22:46;16.10;;;10.40;;
75340;SDS011;64931;47.562;18.920;2023-11-19T12:25:14;15.20;;;9.40;;
75340;SDS011;64931;47.562;18.920;2023-11-19T12:30:11;17.40;;;10.40;;
75340;SDS011;64931;47.562;18.920;2023-11-19T12:32:37;16.40;;;10.50;;
75340;SDS011;64931;47.562;18.920;2023-11-19T12:35:07;16.80;;;10.30;;
75340;SDS011;64931;47.562;18.920;2023-11-19T12:37:42;17.50;;;10.40;;
75340;SDS011;64931;47.562;18.920;2023-11-19T12:40:15;24.30;;;14.10;;
75340;SDS011;64931;47.562;18.920;2023-11-19T12:42:44;23.10;;;14.50;;
75340;SDS011;64931;47.562;18.920;2023-11-19T12:45:11;18.90;;;11.40;;
75340;SDS011;64931;47.562;18.920;2023-11-19T12:47:37;18.30;;;11.30;;
75340;SDS011;64931;47.562;18.920;2023-11-19T12:50:04;16.40;;;10.70;;
75340;SDS011;64931;47.562;18.920;2023-11-19T12:52:30;16.30;;;10.10;;
75340;SDS011;64931;47.562;18.920;2023-11-19T12:54:55;16.50;;;10.80;;
75340;SDS011;64931;47.562;18.920;2023-11-19T12:57:35;15.80;;;9.80;;
75340;SDS011;64931;47.562;18.920;2023-11-19T13:00:05;14.60;;;9.70;;
75340;SDS011;64931;47.562;18.920;2023-11-19T13:02:53;15.30;;;10.00;;
75340;SDS011;64931;47.562;18.920;2023-11-19T13:08:08;15.10;;;8.80;;
75340;SDS011;64931;47.562;18.920;2023-11-19T13:10:53;16.30;;;9.80;;
75340;SDS011;64931;47.562;18.920;2023-11-19T13:13:21;16.90;;;10.80;;
75340;SDS011;64931;47.562;18.920;2023-11-19T13:15:47;16.70;;;10.60;;
75340;SDS011;64931;47.562;18.920;2023-11-19T13:18:15;15.60;;;8.80;;
75340;SDS011;64931;47.562;18.920;2023-11-19T13:20:41;16.40;;;8.90;;
75340;SDS011;64931;47.562;18.920;2023-11-19T13:23:07;17.80;;;10.80;;
75340;SDS011;64931;47.562;18.920;2023-11-19T13:25:32;15.70;;;9.40;;
75340;SDS011;64931;47.562;18.920;2023-11-19T13:27:58;18.30;;;11.70;;
75340;SDS011;64931;47.562;18.920;2023-11-19T13:30:24;19.00;;;11.60;;
75340;SDS011;64931;47.562;18.920;2023-11-19T13:32:50;17.80;;;12.00;;
75340;SDS011;64931;47.562;18.920;2023-11-19T13:35:16;20.10;;;12.60;;
75340;SDS011;64931;47.562;18.920;2023-11-19T13:37:43;20.30;;;12.90;;
75340;SDS011;64931;47.562;18.920;2023-11-19T13:40:11;20.70;;;11.80;;
75340;SDS011;64931;47.562;18.920;2023-11-19T13:42:40;19.70;;;12.10;;
75340;SDS011;64931;47.562;18.920;2023-11-19T13:45:10;19.50;;;12.70;;
75340;SDS011;64931;47.562;18.920;2023-11-19T13:47:38;18.90;;;12.00;;
75340;SDS011;64931;47.562;18.920;2023-11-19T13:50:11;17.90;;;10.50;;
75340;SDS011;64931;47.562;18.920;2023-11-19T13:52:38;21.50;;;12.20;;
75340;SDS011;64931;47.562;18.920;2023-11-19T13:55:07;21.80;;;12.30;;
75340;SDS011;64931;47.562;18.920;2023-11-19T13:57:37;21.50;;;12.50;;
75340;SDS011;64931;47.562;18.920;2023-11-19T14:00:04;23.00;;;13.40;;
75340;SDS011;64931;47.562;18.920;2023-11-19T14:02:32;24.30;;;12.20;;
75340;SDS011;64931;47.562;18.920;2023-11-19T14:04:58;24.10;;;13.90;;
75340;SDS011;64931;47.562;18.920;2023-11-19T14:07:24;19.60;;;11.80;;
75340;SDS011;64931;47.562;18.920;2023-11-19T14:09:49;24.70;;;15.30;;
75340;SDS011;64931;47.562;18.920;2023-11-19T14:12:15;22.30;;;13.20;;
75340;SDS011;64931;47.562;18.920;2023-11-19T14:14:41;21.90;;;11.70;;
75340;SDS011;64931;47.562;18.920;2023-11-19T14:17:07;20.90;;;13.00;;
75340;SDS011;64931;47.562;18.920;2023-11-19T14:19:33;22.10;;;12.60;;
75340;SDS011;64931;47.562;18.920;2023-11-19T14:21:59;18.30;;;11.50;;
75340;SDS011;64931;47.562;18.920;2023-11-19T14:24:25;17.80;;;11.20;;
75340;SDS011;64931;47.562;18.920;2023-11-19T14:26:51;19.30;;;11.80;;
75340;SDS011;64931;47.562;18.920;2023-11-19T14:29:16;20.60;;;12.20;;
75340;SDS011;64931;47.562;18.920;2023-11-19T14:31:42;19.60;;;11.60;;
75340;SDS011;64931;47.562;18.920;2023-11-19T14:34:07;21.50;;;14.10;;
75340;SDS011;64931;47.562;18.920;2023-11-19T14:36:33;22.10;;;12.60;;
75340;SDS011;64931;47.562;18.920;2023-11-19T14:38:59;18.60;;;11.40;;
75340;SDS011;64931;47.562;18.920;2023-11-19T14:41:24;18.00;;;11.00;;
75340;SDS011;64931;47.562;18.920;2023-11-19T14:43:49;21.10;;;12.60;;
75340;SDS011;64931;47.562;18.920;2023-11-19T14:46:15;20.50;;;12.90;;
75340;SDS011;64931;47.562;18.920;2023-11-19T14:48:40;16.10;;;9.90;;
75340;SDS011;64931;47.562;18.920;2023-11-19T14:51:06;16.90;;;11.00;;
75340;SDS011;64931;47.562;18.920;2023-11-19T14:53:32;20.50;;;12.40;;
75340;SDS011;64931;47.562;18.920;2023-11-19T14:55:58;17.90;;;11.30;;